KSGH/SGH METAR and TAF weather

Enter ICAO airport designator
Station Type Date Time Source
KSGH METAR 2020/07/10 22:49 UTC NOAA

KSGH 102249Z AUTO 30015G24KT 10SM SCT031 BKN038 OVC080 26/20 A2983 RMK AO2


Station Type Date Time Source
KSGH Decoded METAR 2020/07/10 22:49 UTC NOAA

Springfield, Springfield-Beckley Municipal Airport, OH, United States (KSGH) 39-50-25N 083-50-24W
Jul 10, 2020 - 06:49 PM EDT / 2020.07.10 2249 UTC
Wind: from the WNW (300 degrees) at 17 MPH (15 KT) gusting to 28 MPH (24 KT):0
Visibility: 10 mile(s):0
Sky conditions: overcast
Temperature: 78 F (26 C)
Dew Point: 68 F (20 C)
Relative Humidity: 69%
Pressure (altimeter): 29.83 in. Hg (1010 hPa)
ob: KSGH 102249Z AUTO 30015G24KT 10SM SCT031 BKN038 OVC080 26/20 A2983 RMK AO2
cycle: 23

Station Type Date Time Source
KSGH TAF UTC NOAA

Error!

Example: see airport list